createdAt,value
2022-10-13T00:01:20.223Z,3.00
2022-10-13T00:03:48.354Z,3.13
2022-10-13T00:06:23.142Z,2.88
2022-10-13T00:08:52.497Z,3.20
2022-10-13T00:11:22.554Z,3.00
2022-10-13T00:13:50.911Z,2.80
2022-10-13T00:16:20.704Z,2.80
2022-10-13T00:18:49.347Z,2.97
2022-10-13T00:21:20.369Z,3.05
2022-10-13T00:23:50.407Z,3.10
2022-10-13T00:26:22.104Z,3.05
2022-10-13T00:28:52.849Z,2.72
2022-10-13T00:31:26.260Z,3.22
2022-10-13T00:33:54.494Z,3.20
2022-10-13T00:36:23.808Z,4.18
2022-10-13T00:38:52.321Z,3.53
2022-10-13T00:41:20.655Z,3.50
2022-10-13T00:43:58.230Z,3.65
2022-10-13T00:46:47.158Z,3.17
2022-10-13T00:49:15.479Z,2.88
2022-10-13T00:51:49.539Z,3.08
2022-10-13T00:54:20.999Z,3.55
2022-10-13T00:56:49.238Z,3.20
2022-10-13T00:59:27.366Z,3.47
2022-10-13T01:01:55.496Z,2.97
2022-10-13T01:04:25.761Z,2.63
2022-10-13T01:06:54.397Z,3.05
2022-10-13T01:09:22.184Z,3.05
2022-10-13T01:12:09.848Z,3.00
2022-10-13T01:14:40.440Z,3.25
2022-10-13T01:17:40.055Z,2.77
2022-10-13T01:20:23.203Z,3.45
2022-10-13T01:23:08.748Z,3.40
2022-10-13T01:26:24.115Z,3.75
2022-10-13T01:29:04.016Z,2.83
2022-10-13T01:31:50.107Z,3.03
2022-10-13T01:34:32.073Z,3.38
2022-10-13T01:37:21.146Z,3.15
2022-10-13T01:39:56.885Z,3.65
2022-10-13T01:43:04.454Z,2.63
2022-10-13T01:45:46.680Z,3.35
2022-10-13T01:48:15.984Z,3.10
2022-10-13T01:53:14.751Z,2.95
2022-10-13T01:55:53.315Z,3.20
2022-10-13T01:58:22.277Z,3.63
2022-10-13T02:01:12.841Z,3.38
2022-10-13T02:04:05.486Z,3.53
2022-10-13T02:06:49.371Z,3.33
2022-10-13T02:09:38.049Z,3.25
2022-10-13T02:12:21.570Z,3.15
2022-10-13T02:14:50.477Z,3.53
2022-10-13T02:17:18.671Z,4.25
2022-10-13T02:19:46.687Z,3.90
2022-10-13T02:22:16.770Z,3.92
2022-10-13T02:24:45.193Z,3.42
2022-10-13T02:27:13.148Z,3.70
2022-10-13T02:29:52.205Z,4.38
2022-10-13T02:32:20.935Z,3.80
2022-10-13T02:34:49.225Z,3.65
2022-10-13T02:37:17.544Z,3.70
2022-10-13T02:39:45.672Z,3.08
2022-10-13T02:42:14.894Z,3.63
2022-10-13T02:44:42.565Z,3.97
2022-10-13T02:47:10.201Z,3.53
2022-10-13T02:49:38.032Z,3.35
2022-10-13T02:52:05.821Z,3.78
2022-10-13T02:54:33.734Z,3.50
2022-10-13T02:57:01.536Z,3.60
2022-10-13T02:59:29.294Z,3.97
2022-10-13T03:01:57.214Z,3.88
2022-10-13T03:04:26.777Z,3.13
2022-10-13T03:06:54.888Z,3.42
2022-10-13T03:09:22.540Z,3.17
2022-10-13T03:11:50.395Z,4.70
2022-10-13T03:14:18.524Z,3.63
2022-10-13T03:16:46.415Z,4.18
2022-10-13T03:19:14.742Z,3.88
2022-10-13T03:21:42.738Z,4.03
2022-10-13T03:24:10.445Z,3.75
2022-10-13T03:26:38.247Z,4.20
2022-10-13T03:29:06.110Z,3.97
2022-10-13T03:31:33.869Z,3.90
2022-10-13T03:34:03.226Z,4.25
2022-10-13T03:36:31.208Z,4.75
2022-10-13T03:38:59.053Z,4.38
2022-10-13T03:41:26.892Z,4.18
2022-10-13T03:43:55.022Z,4.10
2022-10-13T03:46:24.509Z,3.70
2022-10-13T03:48:52.412Z,4.55
2022-10-13T03:51:22.096Z,3.72
2022-10-13T03:53:51.108Z,4.03
2022-10-13T03:56:21.923Z,4.32
2022-10-13T03:58:54.780Z,4.60
2022-10-13T04:01:25.024Z,4.25
2022-10-13T04:03:54.823Z,3.70
2022-10-13T04:06:23.490Z,3.92
2022-10-13T04:08:51.811Z,4.38
2022-10-13T04:11:20.501Z,4.10
2022-10-13T04:13:53.584Z,4.22
2022-10-13T04:16:24.651Z,4.03
2022-10-13T04:18:59.771Z,4.10
2022-10-13T04:21:28.620Z,3.88
2022-10-13T04:23:58.504Z,4.32
2022-10-13T04:26:28.809Z,4.93
2022-10-13T04:28:57.374Z,4.32
2022-10-13T04:31:25.846Z,4.30
2022-10-13T04:33:54.538Z,3.97
2022-10-13T04:36:23.013Z,4.65
2022-10-13T04:38:51.314Z,3.63
2022-10-13T04:41:19.704Z,4.35
2022-10-13T04:43:51.708Z,4.00
2022-10-13T04:46:25.564Z,4.80
2022-10-13T04:48:55.839Z,4.68
2022-10-13T04:51:30.235Z,4.50
2022-10-13T04:54:01.243Z,4.70
2022-10-13T04:56:29.725Z,4.32
2022-10-13T04:59:05.974Z,4.50
2022-10-13T05:01:36.286Z,4.15
2022-10-13T05:04:07.349Z,4.85
2022-10-13T05:06:53.271Z,4.70
2022-10-13T05:09:22.634Z,4.47
2022-10-13T05:11:50.490Z,4.45
2022-10-13T05:14:18.295Z,4.68
2022-10-13T05:16:46.099Z,5.22
2022-10-13T05:19:16.216Z,4.70
2022-10-13T05:21:44.118Z,6.03
2022-10-13T05:24:13.944Z,4.30
2022-10-13T05:26:42.477Z,4.13
2022-10-13T05:29:10.502Z,4.75
2022-10-13T05:31:38.910Z,4.80
2022-10-13T05:34:06.693Z,4.63
2022-10-13T05:36:35.668Z,4.68
2022-10-13T05:39:05.934Z,4.85
2022-10-13T05:41:33.815Z,4.25
2022-10-13T05:44:07.352Z,3.50
2022-10-13T05:46:36.504Z,4.40
2022-10-13T05:49:05.159Z,4.15
2022-10-13T05:51:41.252Z,3.97
2022-10-13T05:54:20.438Z,3.97
2022-10-13T05:57:04.428Z,4.55
2022-10-13T05:59:38.040Z,4.30
2022-10-13T06:02:08.220Z,4.07
2022-10-13T06:04:40.555Z,3.97
2022-10-13T06:07:10.241Z,4.43
2022-10-13T06:09:39.443Z,4.07
2022-10-13T06:12:08.311Z,4.78
2022-10-13T06:14:36.348Z,4.38
2022-10-13T06:17:08.124Z,4.53
2022-10-13T06:19:35.939Z,4.68
2022-10-13T06:22:10.069Z,4.68
2022-10-13T06:24:38.082Z,4.68
2022-10-13T06:29:38.825Z,3.83
2022-10-13T06:32:06.921Z,5.47
2022-10-13T06:34:34.933Z,4.60
2022-10-13T06:37:02.751Z,4.72
2022-10-13T06:39:30.572Z,5.65
2022-10-13T06:42:01.789Z,4.70
2022-10-13T06:44:38.772Z,4.90
2022-10-13T06:47:07.070Z,4.97
2022-10-13T06:49:35.283Z,5.03
2022-10-13T06:52:03.450Z,4.95
2022-10-13T06:54:31.246Z,5.38
2022-10-13T06:56:59.068Z,5.60
2022-10-13T06:59:28.011Z,4.95
2022-10-13T07:01:55.813Z,5.30
2022-10-13T07:04:28.513Z,4.65
2022-10-13T07:06:58.785Z,5.20
2022-10-13T07:09:26.676Z,4.85
2022-10-13T07:11:54.782Z,5.07
2022-10-13T07:14:22.550Z,6.40
2022-10-13T07:16:51.106Z,5.93
2022-10-13T07:19:18.933Z,6.50
2022-10-13T07:21:46.811Z,7.63
2022-10-13T07:24:14.561Z,5.28
2022-10-13T07:26:42.516Z,5.32
2022-10-13T07:29:10.819Z,5.43
2022-10-13T07:31:38.759Z,5.35
2022-10-13T07:34:06.894Z,4.95
2022-10-13T07:36:35.684Z,5.75
2022-10-13T07:39:04.311Z,5.03
2022-10-13T07:41:35.711Z,5.00
2022-10-13T07:44:03.911Z,6.45
2022-10-13T07:46:31.845Z,6.47
2022-10-13T07:48:59.643Z,5.63
2022-10-13T07:51:27.407Z,5.57
2022-10-13T07:53:55.497Z,5.63
2022-10-13T07:56:23.153Z,6.40
2022-10-13T07:58:51.207Z,6.00
2022-10-13T08:01:19.143Z,6.85
2022-10-13T08:03:50.140Z,4.95
2022-10-13T08:06:19.376Z,5.32
2022-10-13T08:08:48.054Z,5.53
2022-10-13T08:11:18.454Z,5.40
2022-10-13T08:13:50.806Z,5.80
2022-10-13T08:16:24.633Z,4.97
2022-10-13T08:18:53.254Z,4.95
2022-10-13T08:24:13.395Z,4.65
2022-10-13T08:26:41.872Z,5.38
2022-10-13T08:29:21.392Z,5.20
2022-10-13T08:31:51.041Z,5.50
2022-10-13T08:34:19.179Z,5.47
2022-10-13T08:36:47.661Z,4.90
2022-10-13T08:39:15.404Z,5.25
2022-10-13T08:41:44.432Z,5.18
2022-10-13T08:45:10.469Z,5.45
2022-10-13T08:47:28.010Z,4.82
2022-10-13T08:50:02.740Z,4.47
2022-10-13T08:52:44.639Z,4.93
2022-10-13T08:55:46.813Z,3.83
2022-10-13T08:58:26.442Z,4.03
2022-10-13T09:01:16.815Z,4.15
2022-10-13T09:03:52.133Z,4.55
2022-10-13T09:06:29.527Z,4.25
2022-10-13T09:08:57.653Z,4.25
2022-10-13T09:11:29.619Z,4.60
2022-10-13T09:14:03.254Z,3.78
2022-10-13T09:16:43.560Z,4.53
2022-10-13T09:19:15.836Z,3.47
2022-10-13T09:21:43.615Z,4.45
2022-10-13T09:24:16.659Z,3.67
2022-10-13T09:26:46.252Z,4.40
2022-10-13T09:29:27.892Z,4.50
2022-10-13T09:32:18.039Z,3.78
2022-10-13T09:34:46.631Z,4.90
2022-10-13T09:37:24.720Z,3.58
2022-10-13T09:40:11.994Z,4.18
2022-10-13T09:42:40.541Z,3.25
2022-10-13T09:45:18.908Z,3.83
2022-10-13T09:48:05.317Z,3.35
2022-10-13T09:50:35.267Z,3.08
2022-10-13T09:53:24.807Z,3.25
2022-10-13T09:58:38.429Z,3.00
2022-10-13T10:01:06.613Z,3.53
2022-10-13T10:03:36.165Z,3.13
2022-10-13T10:06:07.604Z,2.97
2022-10-13T10:09:17.812Z,3.13
2022-10-13T10:11:47.073Z,2.42
2022-10-13T10:14:28.255Z,2.70
2022-10-13T10:16:58.805Z,2.00
2022-10-13T10:19:35.359Z,2.10
2022-10-13T10:22:31.976Z,3.25
2022-10-13T10:25:13.874Z,2.55
2022-10-13T10:27:46.084Z,2.15
2022-10-13T10:30:21.757Z,2.38
2022-10-13T10:33:02.411Z,2.45
2022-10-13T10:39:00.385Z,2.53
2022-10-13T10:41:45.900Z,2.60
2022-10-13T10:44:48.269Z,2.30
2022-10-13T10:47:29.386Z,1.85
2022-10-13T10:50:06.570Z,2.40
2022-10-13T10:53:00.292Z,2.17
2022-10-13T10:55:50.282Z,2.22
2022-10-13T10:58:42.223Z,1.77
2022-10-13T11:01:20.494Z,1.80
2022-10-13T11:04:22.852Z,1.88
2022-10-13T11:06:50.656Z,2.47
2022-10-13T11:09:41.891Z,2.10
2022-10-13T11:12:46.400Z,2.28
2022-10-13T11:15:40.834Z,2.03
2022-10-13T11:18:46.292Z,1.88
2022-10-13T11:21:14.214Z,1.88
2022-10-13T11:23:49.028Z,1.98
2022-10-13T11:26:42.000Z,1.60
2022-10-13T11:29:19.159Z,2.22
2022-10-13T11:31:51.384Z,1.85
2022-10-13T11:34:28.690Z,2.20
2022-10-13T11:36:58.412Z,1.90
2022-10-13T11:39:27.673Z,1.80
2022-10-13T11:42:14.333Z,1.63
2022-10-13T11:44:54.845Z,1.73
2022-10-13T11:47:28.467Z,1.70
2022-10-13T11:50:23.973Z,1.88
2022-10-13T11:53:08.743Z,1.70
2022-10-13T11:55:58.658Z,2.22
2022-10-13T11:58:29.659Z,1.50
2022-10-13T12:01:12.085Z,1.80
2022-10-13T12:03:45.176Z,1.48
2022-10-13T12:06:35.937Z,1.60
2022-10-13T12:09:18.781Z,1.60
2022-10-13T12:11:47.150Z,1.52
2022-10-13T12:14:30.712Z,1.80
2022-10-13T12:17:00.069Z,1.45
2022-10-13T12:19:32.274Z,1.48
2022-10-13T12:22:01.894Z,1.50
2022-10-13T12:24:31.085Z,1.70
2022-10-13T12:26:59.399Z,1.60
2022-10-13T12:29:33.474Z,1.90
2022-10-13T12:32:06.227Z,1.77
2022-10-13T12:34:36.636Z,2.25
2022-10-13T12:37:08.340Z,2.05
2022-10-13T12:39:36.947Z,1.90
2022-10-13T12:42:08.106Z,1.73
2022-10-13T12:44:38.671Z,1.60
2022-10-13T12:47:06.467Z,1.80
2022-10-13T12:49:35.709Z,1.45
2022-10-13T12:52:09.239Z,1.77
2022-10-13T12:54:40.000Z,1.42
2022-10-13T12:57:21.909Z,1.70
2022-10-13T12:59:50.576Z,1.67
2022-10-13T13:02:26.223Z,1.90
2022-10-13T13:04:56.244Z,2.05
2022-10-13T13:07:35.531Z,1.50
2022-10-13T13:10:09.374Z,1.92
2022-10-13T13:12:38.465Z,2.15
2022-10-13T13:15:34.390Z,1.75
2022-10-13T13:18:24.319Z,2.53
2022-10-13T13:20:52.489Z,1.90
2022-10-13T13:23:20.853Z,2.03
2022-10-13T13:25:49.026Z,1.83
2022-10-13T13:28:17.163Z,1.92
2022-10-13T13:30:45.057Z,1.40
2022-10-13T13:33:12.781Z,1.98
2022-10-13T13:35:40.706Z,1.52
2022-10-13T13:38:09.668Z,2.33
2022-10-13T13:40:37.447Z,1.88
2022-10-13T13:43:05.356Z,2.20
2022-10-13T13:45:34.831Z,1.98
2022-10-13T13:48:03.387Z,1.55
2022-10-13T13:50:36.027Z,1.92
2022-10-13T13:53:07.557Z,1.40
2022-10-13T13:55:35.977Z,1.60
2022-10-13T13:58:06.315Z,1.60
2022-10-13T14:00:34.228Z,1.40
2022-10-13T14:03:02.063Z,1.70
2022-10-13T14:05:29.860Z,1.88
2022-10-13T14:07:58.205Z,1.27
2022-10-13T14:10:26.988Z,1.40
2022-10-13T14:12:55.025Z,1.40
2022-10-13T14:15:27.192Z,1.40
2022-10-13T14:17:57.306Z,1.50
2022-10-13T14:20:31.587Z,1.85
2022-10-13T14:22:59.306Z,2.00
2022-10-13T14:25:27.141Z,2.08
2022-10-13T14:27:54.940Z,1.63
2022-10-13T14:30:25.144Z,1.73
2022-10-13T14:32:53.301Z,1.80
2022-10-13T14:35:21.003Z,1.77
2022-10-13T14:37:49.253Z,1.80
2022-10-13T14:40:17.132Z,1.67
2022-10-13T14:42:45.042Z,1.60
2022-10-13T14:45:16.857Z,1.70
2022-10-13T14:47:44.718Z,1.83
2022-10-13T14:50:12.448Z,1.60
2022-10-13T14:52:40.353Z,1.50
2022-10-13T14:55:08.647Z,1.77
2022-10-13T14:57:36.949Z,1.90
2022-10-13T15:00:05.547Z,1.40
2022-10-13T15:02:33.308Z,1.45
2022-10-13T15:05:01.261Z,1.63
2022-10-13T15:07:29.411Z,1.60
2022-10-13T15:10:06.189Z,1.85
2022-10-13T15:12:34.680Z,1.33
2022-10-13T15:15:02.867Z,1.48
2022-10-13T15:17:31.729Z,1.60
2022-10-13T15:19:59.592Z,1.75
2022-10-13T15:22:27.443Z,1.70
2022-10-13T15:24:55.222Z,1.88
2022-10-13T15:27:23.687Z,1.98
2022-10-13T15:29:51.343Z,2.10
2022-10-13T15:32:20.738Z,1.90
2022-10-13T15:34:56.057Z,1.42
2022-10-13T15:37:23.900Z,1.50
2022-10-13T15:39:56.907Z,1.65
2022-10-13T15:42:25.438Z,1.98
2022-10-13T15:45:10.444Z,1.65
2022-10-13T15:47:38.892Z,1.98
2022-10-13T15:50:07.244Z,2.30
2022-10-13T15:52:40.143Z,2.00
2022-10-13T15:55:09.433Z,2.13
2022-10-13T15:57:37.294Z,2.30
2022-10-13T16:00:09.871Z,1.73
2022-10-13T16:02:41.348Z,1.55
2022-10-13T16:05:10.775Z,1.85
2022-10-13T16:07:40.711Z,2.00
2022-10-13T16:10:09.629Z,1.85
2022-10-13T16:12:37.331Z,1.63
2022-10-13T16:15:06.669Z,2.10
2022-10-13T16:17:35.709Z,1.75
2022-10-13T16:20:05.620Z,1.67
2022-10-13T16:22:33.591Z,1.92
2022-10-13T16:25:01.614Z,1.52
2022-10-13T16:27:29.552Z,2.22
2022-10-13T16:29:57.461Z,2.28
2022-10-13T16:32:25.355Z,2.03
2022-10-13T16:34:55.030Z,1.85
2022-10-13T16:37:23.408Z,1.67
2022-10-13T16:39:54.194Z,2.05
2022-10-13T16:42:22.129Z,2.10
2022-10-13T16:44:50.067Z,1.95
2022-10-13T16:47:18.822Z,1.83
2022-10-13T16:49:47.360Z,1.77
2022-10-13T16:52:15.766Z,1.88
2022-10-13T16:54:45.499Z,1.80
2022-10-13T16:57:13.331Z,2.30
2022-10-13T16:59:41.361Z,1.70
2022-10-13T17:02:14.796Z,1.67
2022-10-13T17:04:44.039Z,2.20
2022-10-13T17:07:11.821Z,2.17
2022-10-13T17:09:39.799Z,1.70
2022-10-13T17:12:07.736Z,1.67
2022-10-13T17:14:35.592Z,1.67
2022-10-13T17:17:03.410Z,2.10
2022-10-13T17:19:33.421Z,2.00
2022-10-13T17:22:02.100Z,1.73
2022-10-13T17:24:30.248Z,1.80
2022-10-13T17:27:00.267Z,1.80
2022-10-13T17:29:30.092Z,1.48
2022-10-13T17:31:58.039Z,2.40
2022-10-13T17:34:25.961Z,1.50
2022-10-13T17:36:53.925Z,1.70
2022-10-13T17:39:21.616Z,1.73
2022-10-13T17:41:49.278Z,2.03
2022-10-13T17:44:20.752Z,2.40
2022-10-13T17:49:17.879Z,1.95
2022-10-13T17:51:46.678Z,1.30
2022-10-13T17:54:16.619Z,1.70
2022-10-13T17:56:48.475Z,2.03
2022-10-13T17:59:17.438Z,1.83
2022-10-13T18:01:45.315Z,1.85
2022-10-13T18:04:15.411Z,2.47
2022-10-13T18:06:46.528Z,2.03
2022-10-13T18:09:17.317Z,1.70
2022-10-13T18:11:50.644Z,2.53
2022-10-13T18:14:20.724Z,2.40
2022-10-13T18:16:53.149Z,2.40
2022-10-13T18:19:21.878Z,2.53
2022-10-13T18:21:50.342Z,1.77
2022-10-13T18:24:18.194Z,2.15
2022-10-13T18:26:47.702Z,1.75
2022-10-13T18:29:15.493Z,2.40
2022-10-13T18:31:43.939Z,2.75
2022-10-13T18:34:14.618Z,2.05
2022-10-13T18:36:50.960Z,2.47
2022-10-13T18:39:25.289Z,2.00
2022-10-13T18:41:54.564Z,2.10
2022-10-13T18:44:23.739Z,2.35
2022-10-13T18:46:53.402Z,2.20
2022-10-13T18:49:31.355Z,1.83
2022-10-13T18:52:00.308Z,2.33
2022-10-13T18:54:29.301Z,2.17
2022-10-13T18:56:57.349Z,2.28
2022-10-13T18:59:25.134Z,2.20
2022-10-13T19:01:53.070Z,2.08
2022-10-13T19:04:22.558Z,2.40
2022-10-13T19:06:51.552Z,1.70
2022-10-13T19:09:21.752Z,2.03
2022-10-13T19:11:49.578Z,1.92
2022-10-13T19:14:18.675Z,2.60
2022-10-13T19:16:46.594Z,2.40
2022-10-13T19:19:14.636Z,2.90
2022-10-13T19:21:45.296Z,3.17
2022-10-13T19:24:13.284Z,2.50
2022-10-13T19:26:41.345Z,2.60
2022-10-13T19:29:13.635Z,2.55
2022-10-13T19:31:42.550Z,2.70
2022-10-13T19:34:11.862Z,2.80
2022-10-13T19:36:45.874Z,2.85
2022-10-13T19:39:23.649Z,3.00
2022-10-13T19:41:53.631Z,3.22
2022-10-13T19:44:22.584Z,2.70
2022-10-13T19:46:51.081Z,2.88
2022-10-13T19:49:21.033Z,3.38
2022-10-13T19:51:49.839Z,3.17
2022-10-13T19:54:19.082Z,3.70
2022-10-13T19:56:48.451Z,3.28
2022-10-13T19:59:17.677Z,3.55
2022-10-13T20:01:46.083Z,3.10
2022-10-13T20:04:16.033Z,3.17
2022-10-13T20:06:47.228Z,3.15
2022-10-13T20:09:15.245Z,4.07
2022-10-13T20:11:46.509Z,3.92
2022-10-13T20:14:14.977Z,3.22
2022-10-13T20:16:45.211Z,3.05
2022-10-13T20:19:15.053Z,3.22
2022-10-13T20:21:48.174Z,3.08
2022-10-13T20:24:22.390Z,3.63
2022-10-13T20:26:50.413Z,3.92
2022-10-13T20:29:23.223Z,3.53
2022-10-13T20:31:51.027Z,2.83
2022-10-13T20:34:18.920Z,3.10
2022-10-13T20:36:46.795Z,3.00
2022-10-13T20:39:14.651Z,4.38
2022-10-13T20:41:42.717Z,3.38
2022-10-13T20:44:11.104Z,3.28
2022-10-13T20:46:39.041Z,3.65
2022-10-13T20:49:11.838Z,2.78
2022-10-13T20:51:41.257Z,2.90
2022-10-13T20:54:13.063Z,3.40
2022-10-13T20:56:41.296Z,3.47
2022-10-13T20:59:11.689Z,3.50
2022-10-13T21:01:39.610Z,3.50
2022-10-13T21:04:08.259Z,3.80
2022-10-13T21:06:37.552Z,4.93
2022-10-13T21:09:06.302Z,3.58
2022-10-13T21:11:34.532Z,3.55
2022-10-13T21:14:07.154Z,3.28
2022-10-13T21:16:35.948Z,3.28
2022-10-13T21:19:07.088Z,3.65
2022-10-13T21:21:36.252Z,3.47
2022-10-13T21:24:06.896Z,3.25
2022-10-13T21:26:35.115Z,3.20
2022-10-13T21:29:03.443Z,3.70
2022-10-13T21:31:32.465Z,3.72
2022-10-13T21:34:01.083Z,3.60
2022-10-13T21:36:31.092Z,3.22
2022-10-13T21:39:04.667Z,3.15
2022-10-13T21:41:34.067Z,3.20
2022-10-13T21:44:02.307Z,3.13
2022-10-13T21:46:33.650Z,3.35
2022-10-13T21:49:03.573Z,3.75
2022-10-13T21:51:36.479Z,4.13
2022-10-13T21:54:09.047Z,3.40
2022-10-13T21:56:37.905Z,4.07
2022-10-13T21:59:10.374Z,3.75
2022-10-13T22:01:38.260Z,3.83
2022-10-13T22:04:13.808Z,3.20
2022-10-13T22:06:41.870Z,3.55
2022-10-13T22:09:09.899Z,3.40
2022-10-13T22:11:38.865Z,3.30
2022-10-13T22:14:12.069Z,3.60
2022-10-13T22:16:43.042Z,3.80
2022-10-13T22:19:11.306Z,3.72
2022-10-13T22:21:42.360Z,3.40
2022-10-13T22:24:13.770Z,3.90
2022-10-13T22:29:11.351Z,3.30
2022-10-13T22:31:39.219Z,3.90
2022-10-13T22:34:11.098Z,3.50
2022-10-13T22:36:43.621Z,5.18
2022-10-13T22:39:13.304Z,4.10
2022-10-13T22:41:41.598Z,4.15
2022-10-13T22:44:09.943Z,3.35
2022-10-13T22:46:39.241Z,3.70
2022-10-13T22:49:08.102Z,3.78
2022-10-13T22:51:37.287Z,3.58
2022-10-13T22:54:06.253Z,4.18
2022-10-13T22:56:35.102Z,3.85
2022-10-13T22:59:06.839Z,4.03
2022-10-13T23:01:35.134Z,4.13
2022-10-13T23:04:03.154Z,3.97
2022-10-13T23:06:32.658Z,3.55
2022-10-13T23:09:13.593Z,3.55
2022-10-13T23:11:41.952Z,3.40
2022-10-13T23:14:11.962Z,3.35
2022-10-13T23:16:40.406Z,4.22
2022-10-13T23:19:11.043Z,4.20
2022-10-13T23:21:39.151Z,3.70
2022-10-13T23:24:08.512Z,3.47
2022-10-13T23:26:36.248Z,3.90
2022-10-13T23:29:04.423Z,4.45
2022-10-13T23:31:32.913Z,3.88
2022-10-13T23:34:03.201Z,4.07
2022-10-13T23:36:32.815Z,3.30
2022-10-13T23:39:03.136Z,4.25
2022-10-13T23:41:31.429Z,4.00
2022-10-13T23:43:59.351Z,4.93
2022-10-13T23:46:27.940Z,4.65
2022-10-13T23:48:56.189Z,4.00
2022-10-13T23:51:25.656Z,4.32
2022-10-13T23:53:54.551Z,3.90
2022-10-13T23:56:23.050Z,3.90
2022-10-13T23:58:51.315Z,4.35
